createdAt,value
2022-09-27T00:00:45.990Z,87.07
2022-09-27T00:02:07.978Z,87.11
2022-09-27T00:03:11.357Z,87.11
2022-09-27T00:04:13.268Z,87.12
2022-09-27T00:05:15.934Z,87.12
2022-09-27T00:06:29.595Z,87.05
2022-09-27T00:07:31.472Z,87.13
2022-09-27T00:08:35.139Z,87.16
2022-09-27T00:09:36.927Z,87.15
2022-09-27T00:10:38.800Z,87.18
2022-09-27T00:11:42.144Z,87.27
2022-09-27T00:12:44.550Z,87.21
2022-09-27T00:13:46.196Z,87.44
2022-09-27T00:14:47.946Z,87.37
2022-09-27T00:15:56.101Z,87.36
2022-09-27T00:16:57.967Z,87.34
2022-09-27T00:17:59.725Z,87.35
2022-09-27T00:19:06.129Z,87.42
2022-09-27T00:20:08.898Z,87.40
2022-09-27T00:21:13.129Z,87.47
2022-09-27T00:22:14.819Z,87.58
2022-09-27T00:23:16.504Z,87.49
2022-09-27T00:24:20.860Z,87.44
2022-09-27T00:25:22.473Z,87.39
2022-09-27T00:26:25.185Z,87.41
2022-09-27T00:27:27.292Z,87.54
2022-09-27T00:28:30.408Z,87.42
2022-09-27T00:29:32.244Z,87.54
2022-09-27T00:30:34.356Z,87.60
2022-09-27T00:31:37.184Z,87.65
2022-09-27T00:32:39.457Z,87.63
2022-09-27T00:33:41.372Z,87.57
2022-09-27T00:34:43.387Z,87.58
2022-09-27T00:35:45.887Z,87.62
2022-09-27T00:36:48.572Z,87.67
2022-09-27T00:37:50.316Z,87.66
2022-09-27T00:38:52.707Z,87.72
2022-09-27T00:39:54.473Z,87.68
2022-09-27T00:40:56.338Z,87.53
2022-09-27T00:41:58.110Z,87.41
2022-09-27T00:42:59.835Z,87.38
2022-09-27T00:44:37.232Z,87.53
2022-09-27T00:45:39.003Z,87.64
2022-09-27T00:46:47.430Z,87.59
2022-09-27T00:48:04.982Z,87.49
2022-09-27T00:49:18.509Z,87.60
2022-09-27T00:50:29.276Z,87.80
2022-09-27T00:51:34.326Z,87.68
2022-09-27T00:52:48.151Z,87.61
2022-09-27T00:53:52.939Z,87.69
2022-09-27T00:55:06.539Z,87.78
2022-09-27T00:56:16.025Z,87.78
2022-09-27T00:57:20.218Z,88.11
2022-09-27T00:58:29.615Z,88.04
2022-09-27T00:59:40.603Z,88.08
2022-09-27T01:00:47.800Z,88.06
2022-09-27T01:01:50.431Z,88.05
2022-09-27T01:02:54.261Z,88.01
2022-09-27T01:04:14.239Z,88.11
2022-09-27T01:05:20.137Z,88.29
2022-09-27T01:06:22.039Z,88.02
2022-09-27T01:07:23.735Z,88.24
2022-09-27T01:08:25.447Z,88.25
2022-09-27T01:09:28.448Z,88.16
2022-09-27T01:10:40.443Z,88.27
2022-09-27T01:11:49.871Z,88.29
2022-09-27T01:13:06.716Z,88.21
2022-09-27T01:14:29.390Z,88.17
2022-09-27T01:15:31.090Z,88.41
2022-09-27T01:16:54.546Z,88.37
2022-09-27T01:18:20.787Z,88.51
2022-09-27T01:19:47.321Z,88.42
2022-09-27T01:21:01.842Z,88.52
2022-09-27T01:22:14.054Z,88.73
2022-09-27T01:24:00.887Z,88.76
2022-09-27T01:25:08.404Z,88.79
2022-09-27T01:26:29.031Z,88.71
2022-09-27T01:27:49.686Z,88.78
2022-09-27T01:29:06.689Z,88.56
2022-09-27T01:30:21.214Z,88.55
2022-09-27T01:33:10.559Z,88.45
2022-09-27T01:34:30.050Z,88.52
2022-09-27T01:36:00.236Z,88.75
2022-09-27T01:37:20.134Z,88.77
2022-09-27T01:38:55.711Z,88.56
2022-09-27T01:40:36.690Z,88.64
2022-09-27T01:42:22.343Z,88.82
2022-09-27T01:43:58.615Z,88.66
2022-09-27T01:45:11.033Z,88.56
2022-09-27T01:46:27.383Z,88.41
2022-09-27T01:47:54.302Z,88.31
2022-09-27T01:49:26.920Z,88.21
2022-09-27T01:50:35.046Z,88.30
2022-09-27T01:51:47.864Z,88.14
2022-09-27T01:53:03.174Z,88.19
2022-09-27T01:54:10.205Z,88.01
2022-09-27T01:55:34.966Z,88.18
2022-09-27T01:57:12.984Z,87.94
2022-09-27T01:58:23.842Z,88.00
2022-09-27T01:59:32.225Z,88.01
2022-09-27T02:00:48.257Z,88.13
2022-09-27T02:01:51.764Z,88.49
2022-09-27T02:03:20.738Z,88.76
2022-09-27T02:04:57.068Z,88.94
2022-09-27T02:06:03.669Z,88.98
2022-09-27T02:07:31.753Z,89.07
2022-09-27T02:08:33.642Z,89.12
2022-09-27T02:09:47.926Z,89.30
2022-09-27T02:10:57.884Z,89.23
2022-09-27T02:12:10.818Z,89.33
2022-09-27T02:13:24.462Z,89.37
2022-09-27T02:14:53.567Z,89.47
2022-09-27T02:16:08.045Z,89.65
2022-09-27T02:17:22.839Z,89.66
2022-09-27T02:18:51.209Z,89.48
2022-09-27T02:19:57.132Z,89.80
2022-09-27T02:21:06.934Z,89.70
2022-09-27T02:22:20.995Z,89.76
2022-09-27T02:23:27.281Z,89.79
2022-09-27T02:24:49.595Z,89.92
2022-09-27T02:26:20.574Z,90.08
2022-09-27T02:27:35.520Z,89.96
2022-09-27T02:28:49.450Z,90.06
2022-09-27T02:30:05.486Z,90.01
2022-09-27T02:31:09.446Z,89.91
2022-09-27T02:32:12.536Z,89.74
2022-09-27T02:33:15.819Z,89.90
2022-09-27T02:34:28.787Z,89.73
2022-09-27T02:35:35.156Z,89.86
2022-09-27T02:36:37.910Z,89.57
2022-09-27T02:37:39.847Z,89.79
2022-09-27T02:38:43.055Z,89.68
2022-09-27T02:39:45.671Z,89.94
2022-09-27T02:40:47.450Z,89.70
2022-09-27T02:41:49.473Z,89.88
2022-09-27T02:42:52.397Z,89.91
2022-09-27T02:44:01.917Z,89.88
2022-09-27T02:45:06.198Z,89.87
2022-09-27T02:46:13.877Z,89.99
2022-09-27T02:47:15.571Z,90.05
2022-09-27T02:48:36.017Z,90.03
2022-09-27T02:50:10.091Z,90.01
2022-09-27T02:51:45.632Z,90.32
2022-09-27T02:53:08.813Z,90.32
2022-09-27T02:54:34.769Z,90.29
2022-09-27T02:55:51.160Z,90.41
2022-09-27T02:57:42.382Z,90.41
2022-09-27T02:59:11.454Z,90.19
2022-09-27T03:01:29.027Z,90.65
2022-09-27T03:02:58.122Z,90.63
2022-09-27T03:04:14.230Z,90.45
2022-09-27T03:05:29.571Z,90.40
2022-09-27T03:06:33.505Z,90.49
2022-09-27T03:07:37.809Z,90.36
2022-09-27T03:08:41.291Z,90.36
2022-09-27T03:09:47.399Z,90.39
2022-09-27T03:10:49.792Z,90.24
2022-09-27T03:11:52.621Z,90.24
2022-09-27T03:12:56.159Z,90.29
2022-09-27T03:14:13.656Z,90.31
2022-09-27T03:15:21.575Z,90.40
2022-09-27T03:16:49.470Z,90.10
2022-09-27T03:18:17.178Z,90.21
2022-09-27T03:19:37.882Z,90.31
2022-09-27T03:21:05.880Z,90.10
2022-09-27T03:22:08.581Z,90.38
2022-09-27T03:23:10.319Z,90.25
2022-09-27T03:24:12.013Z,90.58
2022-09-27T03:25:13.894Z,90.38
2022-09-27T03:26:15.770Z,90.36
2022-09-27T03:27:17.881Z,90.77
2022-09-27T03:28:19.777Z,90.61
2022-09-27T03:29:22.082Z,90.36
2022-09-27T03:30:27.389Z,90.39
2022-09-27T03:31:29.873Z,90.66
2022-09-27T03:32:50.069Z,90.83
2022-09-27T03:34:10.302Z,90.67
2022-09-27T03:35:12.634Z,90.54
2022-09-27T03:36:14.447Z,90.58
2022-09-27T03:37:16.273Z,90.62
2022-09-27T03:38:18.219Z,90.50
2022-09-27T03:39:20.284Z,90.51
2022-09-27T03:40:21.944Z,90.60
2022-09-27T03:41:24.155Z,90.86
2022-09-27T03:42:26.936Z,90.71
2022-09-27T03:43:28.683Z,90.63
2022-09-27T03:44:32.789Z,90.56
2022-09-27T03:45:34.604Z,90.74
2022-09-27T03:46:39.915Z,90.71
2022-09-27T03:47:41.961Z,90.61
2022-09-27T03:48:43.569Z,90.49
2022-09-27T03:49:45.321Z,90.51
2022-09-27T03:50:46.956Z,90.54
2022-09-27T03:51:48.744Z,90.98
2022-09-27T03:52:50.504Z,90.85
2022-09-27T03:53:52.208Z,90.69
2022-09-27T03:54:56.353Z,90.58
2022-09-27T03:56:01.798Z,90.84
2022-09-27T03:57:05.090Z,90.63
2022-09-27T03:58:07.507Z,90.83
2022-09-27T03:59:14.096Z,90.83
2022-09-27T04:00:40.450Z,90.71
2022-09-27T04:01:44.018Z,90.74
2022-09-27T04:02:50.238Z,90.91
2022-09-27T04:03:57.637Z,90.71
2022-09-27T04:05:07.520Z,90.88
2022-09-27T04:06:09.566Z,90.88
2022-09-27T04:07:17.283Z,90.90
2022-09-27T04:08:21.058Z,90.90
2022-09-27T04:09:22.907Z,91.04
2022-09-27T04:10:34.246Z,91.44
2022-09-27T04:11:36.005Z,91.16
2022-09-27T04:12:40.104Z,90.94
2022-09-27T04:13:43.829Z,91.02
2022-09-27T04:14:45.816Z,90.93
2022-09-27T04:16:07.792Z,90.87
2022-09-27T04:17:26.919Z,90.72
2022-09-27T04:18:46.273Z,90.99
2022-09-27T04:20:18.181Z,91.17
2022-09-27T04:21:20.083Z,91.03
2022-09-27T04:22:25.273Z,91.38
2022-09-27T04:23:29.986Z,91.36
2022-09-27T04:24:37.262Z,91.26
2022-09-27T04:26:08.039Z,91.38
2022-09-27T04:27:29.179Z,91.33
2022-09-27T04:28:31.693Z,91.49
2022-09-27T04:29:33.493Z,91.50
2022-09-27T04:30:38.912Z,91.82
2022-09-27T04:31:41.093Z,91.68
2022-09-27T04:32:57.476Z,91.90
2022-09-27T04:34:46.814Z,91.82
2022-09-27T04:36:09.126Z,91.80
2022-09-27T04:37:13.872Z,91.99
2022-09-27T04:38:22.704Z,92.17
2022-09-27T04:39:24.548Z,92.24
2022-09-27T04:40:26.474Z,92.19
2022-09-27T04:41:29.035Z,92.01
2022-09-27T04:42:30.997Z,92.42
2022-09-27T04:43:32.667Z,92.29
2022-09-27T04:44:34.336Z,92.23
2022-09-27T04:45:36.136Z,92.57
2022-09-27T04:46:38.325Z,92.66
2022-09-27T04:47:44.115Z,92.25
2022-09-27T04:48:47.165Z,92.34
2022-09-27T04:49:49.249Z,92.60
2022-09-27T04:51:04.555Z,92.75
2022-09-27T04:52:06.367Z,92.61
2022-09-27T04:53:15.100Z,92.55
2022-09-27T04:54:16.857Z,92.60
2022-09-27T04:55:28.729Z,92.41
2022-09-27T04:56:30.430Z,92.43
2022-09-27T04:57:32.530Z,92.69
2022-09-27T04:58:34.607Z,92.75
2022-09-27T04:59:36.419Z,92.81
2022-09-27T05:00:38.124Z,92.52
2022-09-27T05:02:00.019Z,92.97
2022-09-27T05:03:14.435Z,92.87
2022-09-27T05:04:31.242Z,93.27
2022-09-27T05:05:32.935Z,93.27
2022-09-27T05:06:34.873Z,93.10
2022-09-27T05:07:41.831Z,93.48
2022-09-27T05:08:48.056Z,93.26
2022-09-27T05:09:52.816Z,93.46
2022-09-27T05:10:54.732Z,93.26
2022-09-27T05:11:56.458Z,93.63
2022-09-27T05:13:07.257Z,93.97
2022-09-27T05:14:09.278Z,93.84
2022-09-27T05:15:19.265Z,93.61
2022-09-27T05:16:39.454Z,94.14
2022-09-27T05:17:59.509Z,94.32
2022-09-27T05:19:20.297Z,94.19
2022-09-27T05:20:31.153Z,94.61
2022-09-27T05:21:45.836Z,94.46
2022-09-27T05:22:47.960Z,94.67
2022-09-27T05:23:49.989Z,95.04
2022-09-27T05:24:52.147Z,94.67
2022-09-27T05:25:55.850Z,94.69
2022-09-27T05:26:57.612Z,94.93
2022-09-27T05:27:59.653Z,94.70
2022-09-27T05:29:02.145Z,95.20
2022-09-27T05:30:07.762Z,95.16
2022-09-27T05:31:16.360Z,95.28
2022-09-27T05:32:19.469Z,94.96
2022-09-27T05:33:34.016Z,95.10
2022-09-27T05:35:14.751Z,95.22
2022-09-27T05:36:16.745Z,94.97
2022-09-27T05:37:18.708Z,95.53
2022-09-27T05:38:21.124Z,95.48
2022-09-27T05:39:25.765Z,95.46
2022-09-27T05:40:46.887Z,95.10
2022-09-27T05:41:57.614Z,94.97
2022-09-27T05:42:59.318Z,95.41
2022-09-27T05:44:02.067Z,95.69
2022-09-27T05:45:06.573Z,95.35
2022-09-27T05:46:10.734Z,95.51
2022-09-27T05:47:18.526Z,95.71
2022-09-27T05:48:23.115Z,95.85
2022-09-27T05:49:36.990Z,95.42
2022-09-27T05:50:40.061Z,95.70
2022-09-27T05:51:43.106Z,95.72
2022-09-27T05:52:48.508Z,95.30
2022-09-27T05:53:51.039Z,95.62
2022-09-27T05:54:58.840Z,95.72
2022-09-27T05:56:02.728Z,95.64
2022-09-27T05:57:09.800Z,95.31
2022-09-27T05:58:19.234Z,95.43
2022-09-27T05:59:29.354Z,95.37
2022-09-27T06:01:07.358Z,96.01
2022-09-27T06:02:26.599Z,95.97
2022-09-27T06:03:47.110Z,96.24
2022-09-27T06:05:07.462Z,95.80
2022-09-27T06:06:15.364Z,95.87
2022-09-27T06:07:21.469Z,95.86
2022-09-27T06:08:23.520Z,96.24
2022-09-27T06:09:27.683Z,95.97
2022-09-27T06:10:31.745Z,96.10
2022-09-27T06:11:34.365Z,96.06
2022-09-27T06:12:36.452Z,96.12
2022-09-27T06:13:41.955Z,96.21
2022-09-27T06:14:45.367Z,95.47
2022-09-27T06:15:52.394Z,95.50
2022-09-27T06:16:54.438Z,96.16
2022-09-27T06:18:07.238Z,95.54
2022-09-27T06:19:10.138Z,95.63
2022-09-27T06:20:12.529Z,95.56
2022-09-27T06:21:15.054Z,95.74
2022-09-27T06:22:23.291Z,95.47
2022-09-27T06:23:32.467Z,95.73
2022-09-27T06:24:37.117Z,95.45
2022-09-27T06:26:08.256Z,95.99
2022-09-27T06:27:38.777Z,95.58
2022-09-27T06:28:54.194Z,95.43
2022-09-27T06:30:03.072Z,95.39
2022-09-27T06:31:40.560Z,95.53
2022-09-27T06:33:00.547Z,95.53
2022-09-27T06:34:08.395Z,95.51
2022-09-27T06:35:10.270Z,95.32
2022-09-27T06:36:12.530Z,95.76
2022-09-27T06:37:15.753Z,95.57
2022-09-27T06:38:17.764Z,95.52
2022-09-27T06:39:27.931Z,95.35
2022-09-27T06:40:39.315Z,95.15
2022-09-27T06:41:59.121Z,95.23
2022-09-27T06:43:20.854Z,94.78
2022-09-27T06:44:50.267Z,95.03
2022-09-27T06:46:07.761Z,95.07
2022-09-27T06:47:23.115Z,95.19
2022-09-27T06:48:38.655Z,95.06
2022-09-27T06:49:49.434Z,94.86
2022-09-27T06:50:53.458Z,95.10
2022-09-27T06:51:56.723Z,94.93
2022-09-27T06:52:58.982Z,95.28
2022-09-27T06:54:00.754Z,94.96
2022-09-27T06:55:04.041Z,94.89
2022-09-27T06:56:07.400Z,94.91
2022-09-27T06:57:46.548Z,94.48
2022-09-27T06:59:06.757Z,94.72
2022-09-27T07:00:23.039Z,94.94
2022-09-27T07:01:44.931Z,94.86
2022-09-27T07:02:57.863Z,94.68
2022-09-27T07:04:19.738Z,94.61
2022-09-27T07:05:42.911Z,94.99
2022-09-27T07:07:01.423Z,94.99
2022-09-27T07:08:14.098Z,95.11
2022-09-27T07:09:17.253Z,95.21
2022-09-27T07:10:19.307Z,95.07
2022-09-27T07:11:22.734Z,95.12
2022-09-27T07:12:24.409Z,95.28
2022-09-27T07:13:33.647Z,95.61
2022-09-27T07:14:35.873Z,95.49
2022-09-27T07:15:41.035Z,95.38
2022-09-27T07:16:46.735Z,96.02
2022-09-27T07:17:59.086Z,96.16
2022-09-27T07:19:04.902Z,95.87
2022-09-27T07:20:07.065Z,96.00
2022-09-27T07:21:11.888Z,96.09
2022-09-27T07:22:13.759Z,96.10
2022-09-27T07:23:18.128Z,96.29
2022-09-27T07:24:22.156Z,96.31
2022-09-27T07:25:25.391Z,96.28
2022-09-27T07:26:27.108Z,96.43
2022-09-27T07:27:29.154Z,96.36
2022-09-27T07:28:31.324Z,96.73
2022-09-27T07:29:33.651Z,96.53
2022-09-27T07:30:36.579Z,96.60
2022-09-27T07:31:38.533Z,97.00
2022-09-27T07:32:41.464Z,96.64
2022-09-27T07:33:44.621Z,96.47
2022-09-27T07:34:46.541Z,96.51
2022-09-27T07:35:48.393Z,96.72
2022-09-27T07:36:50.071Z,96.51
2022-09-27T07:37:51.808Z,96.44
2022-09-27T07:38:53.508Z,96.52
2022-09-27T07:39:56.607Z,96.53
2022-09-27T07:41:05.142Z,96.41
2022-09-27T07:42:06.841Z,96.60
2022-09-27T07:43:11.677Z,96.40
2022-09-27T07:44:15.630Z,96.25
2022-09-27T07:45:36.273Z,96.14
2022-09-27T07:46:37.969Z,96.42
2022-09-27T07:47:52.348Z,96.39
2022-09-27T07:48:58.131Z,96.14
2022-09-27T07:50:10.819Z,96.01
2022-09-27T07:51:25.313Z,95.47
2022-09-27T07:52:44.293Z,94.58
2022-09-27T07:54:08.604Z,94.40
2022-09-27T07:55:23.811Z,94.17
2022-09-27T07:56:33.415Z,93.72
2022-09-27T07:57:35.728Z,93.51
2022-09-27T07:58:37.818Z,93.34
2022-09-27T07:59:41.988Z,93.43
2022-09-27T08:00:46.190Z,93.31
2022-09-27T08:01:48.351Z,93.25
2022-09-27T08:02:50.200Z,93.44
2022-09-27T08:03:52.467Z,93.37
2022-09-27T08:04:54.534Z,93.23
2022-09-27T08:06:02.594Z,93.27
2022-09-27T08:07:04.534Z,93.35
2022-09-27T08:08:06.486Z,93.17
2022-09-27T08:09:09.280Z,92.78
2022-09-27T08:10:12.136Z,92.51
2022-09-27T08:11:16.544Z,92.48
2022-09-27T08:12:20.917Z,92.44
2022-09-27T08:13:22.704Z,92.47
2022-09-27T08:14:26.774Z,92.40
2022-09-27T08:15:31.278Z,92.11
2022-09-27T08:16:33.845Z,92.02
2022-09-27T08:17:54.372Z,92.09
2022-09-27T08:19:22.373Z,92.18
2022-09-27T08:20:37.677Z,92.10
2022-09-27T08:21:59.082Z,92.25
2022-09-27T08:23:09.720Z,92.01
2022-09-27T08:24:16.121Z,91.81
2022-09-27T08:25:37.762Z,91.88
2022-09-27T08:26:46.061Z,91.67
2022-09-27T08:28:00.892Z,91.68
2022-09-27T08:29:09.798Z,91.34
2022-09-27T08:30:16.901Z,90.37
2022-09-27T08:31:20.014Z,90.57
2022-09-27T08:32:23.495Z,90.36
2022-09-27T08:33:31.968Z,90.54
2022-09-27T08:34:34.591Z,90.23
2022-09-27T08:35:36.449Z,90.42
2022-09-27T08:36:38.265Z,90.31
2022-09-27T08:37:40.341Z,90.30
2022-09-27T08:38:42.441Z,90.13
2022-09-27T08:39:47.780Z,90.11
2022-09-27T08:41:08.467Z,90.39
2022-09-27T08:42:25.153Z,90.04
2022-09-27T08:43:46.513Z,89.70
2022-09-27T08:45:04.164Z,89.41
2022-09-27T08:46:18.803Z,89.08
2022-09-27T08:47:28.978Z,89.25
2022-09-27T08:48:35.697Z,88.97
2022-09-27T08:49:42.807Z,88.85
2022-09-27T08:50:47.704Z,89.40
2022-09-27T08:51:53.613Z,89.36
2022-09-27T08:53:00.679Z,89.34
2022-09-27T08:54:11.134Z,89.35
2022-09-27T08:55:36.708Z,89.61
2022-09-27T08:56:40.799Z,89.88
2022-09-27T08:57:43.529Z,90.36
2022-09-27T08:58:54.978Z,90.31
2022-09-27T09:00:11.179Z,88.98
2022-09-27T09:01:16.341Z,88.51
2022-09-27T09:02:41.055Z,86.89
2022-09-27T09:03:59.259Z,87.31
2022-09-27T09:05:23.213Z,87.31
2022-09-27T09:06:29.320Z,87.42
2022-09-27T09:07:47.390Z,87.40
2022-09-27T09:09:01.119Z,88.05
2022-09-27T09:10:50.786Z,86.77
2022-09-27T09:12:29.754Z,86.05
2022-09-27T09:14:02.525Z,86.19
2022-09-27T09:15:53.498Z,86.34
2022-09-27T09:17:12.446Z,86.55
2022-09-27T09:19:07.181Z,86.56
2022-09-27T09:20:31.481Z,85.14
2022-09-27T09:21:59.237Z,85.58
2022-09-27T09:23:23.128Z,84.77
2022-09-27T09:24:36.693Z,84.86
2022-09-27T09:25:47.839Z,84.51
2022-09-27T09:27:13.481Z,83.69
2022-09-27T09:28:24.350Z,81.41
2022-09-27T09:29:52.597Z,81.67
2022-09-27T09:31:14.802Z,81.97
2022-09-27T09:32:35.777Z,81.86
2022-09-27T09:33:43.652Z,81.44
2022-09-27T09:34:57.681Z,81.61
2022-09-27T09:36:13.245Z,81.15
2022-09-27T09:37:28.006Z,81.21
2022-09-27T09:38:48.484Z,81.51
2022-09-27T09:39:58.963Z,81.41
2022-09-27T09:41:18.661Z,81.57
2022-09-27T09:42:32.454Z,81.90
2022-09-27T09:43:47.818Z,81.21
2022-09-27T09:45:12.686Z,80.91
2022-09-27T09:46:44.784Z,81.21
2022-09-27T09:48:14.659Z,81.17
2022-09-27T09:49:23.223Z,80.92
2022-09-27T09:50:36.370Z,80.36
2022-09-27T09:51:49.475Z,79.54
2022-09-27T09:52:58.742Z,79.17
2022-09-27T09:54:23.994Z,79.22
2022-09-27T09:55:30.918Z,79.96
2022-09-27T09:56:47.055Z,80.02
2022-09-27T09:58:07.672Z,79.70
2022-09-27T09:59:29.771Z,79.05
2022-09-27T10:00:32.493Z,78.80
2022-09-27T10:01:41.174Z,78.81
2022-09-27T10:02:45.235Z,78.77
2022-09-27T10:03:50.156Z,78.05
2022-09-27T10:04:52.026Z,78.49
2022-09-27T10:05:53.670Z,78.38
2022-09-27T10:06:58.817Z,78.08
2022-09-27T10:08:04.903Z,77.55
2022-09-27T10:09:11.445Z,77.73
2022-09-27T10:10:33.656Z,77.30
2022-09-27T10:11:44.317Z,77.22
2022-09-27T10:12:50.847Z,77.36
2022-09-27T10:13:55.399Z,76.08
2022-09-27T10:15:00.789Z,76.99
2022-09-27T10:16:10.517Z,77.04
2022-09-27T10:17:17.607Z,76.49
2022-09-27T10:18:21.377Z,75.63
2022-09-27T10:19:29.821Z,76.21
2022-09-27T10:20:50.678Z,76.37
2022-09-27T10:21:53.241Z,76.26
2022-09-27T10:23:00.488Z,76.37
2022-09-27T10:24:19.633Z,75.96
2022-09-27T10:25:59.778Z,75.62
2022-09-27T10:27:13.393Z,75.73
2022-09-27T10:28:32.115Z,75.29
2022-09-27T10:29:37.995Z,75.08
2022-09-27T10:30:55.708Z,75.39
2022-09-27T10:32:00.968Z,74.53
2022-09-27T10:33:18.303Z,74.25
2022-09-27T10:34:37.586Z,74.18
2022-09-27T10:35:44.489Z,71.46
2022-09-27T10:37:18.113Z,71.04
2022-09-27T10:38:52.563Z,71.53
2022-09-27T10:39:59.765Z,71.95
2022-09-27T10:41:31.359Z,71.19
2022-09-27T10:42:37.969Z,71.86
2022-09-27T10:43:41.938Z,72.20
2022-09-27T10:45:21.794Z,71.72
2022-09-27T10:46:33.914Z,71.66
2022-09-27T10:47:51.812Z,72.18
2022-09-27T10:49:21.313Z,72.33
2022-09-27T10:50:49.190Z,72.35
2022-09-27T10:52:01.914Z,72.07
2022-09-27T10:53:11.686Z,70.23
2022-09-27T10:54:27.033Z,71.31
2022-09-27T10:55:33.739Z,70.97
2022-09-27T10:56:35.844Z,71.19
2022-09-27T10:57:39.756Z,70.98
2022-09-27T10:58:45.577Z,71.35
2022-09-27T10:59:54.291Z,71.44
2022-09-27T11:01:02.819Z,71.03
2022-09-27T11:02:20.227Z,71.47
2022-09-27T11:03:32.172Z,71.84
2022-09-27T11:04:37.144Z,71.87
2022-09-27T11:05:40.184Z,71.46
2022-09-27T11:06:43.734Z,71.63
2022-09-27T11:07:59.365Z,71.91
2022-09-27T11:09:18.282Z,71.85
2022-09-27T11:10:24.600Z,71.14
2022-09-27T11:11:27.723Z,71.15
2022-09-27T11:12:31.390Z,70.90
2022-09-27T11:13:34.976Z,70.86
2022-09-27T11:14:40.689Z,71.38
2022-09-27T11:15:47.983Z,71.38
2022-09-27T11:17:14.309Z,71.29
2022-09-27T11:18:26.784Z,70.99
2022-09-27T11:20:09.745Z,70.87
2022-09-27T11:21:33.339Z,70.82
2022-09-27T11:22:56.267Z,71.02
2022-09-27T11:24:25.717Z,71.59
2022-09-27T11:25:45.774Z,70.81
2022-09-27T11:26:53.843Z,71.61
2022-09-27T11:27:55.342Z,71.36
2022-09-27T11:29:15.485Z,70.26
2022-09-27T11:31:11.542Z,70.68
2022-09-27T11:32:25.047Z,69.66
2022-09-27T11:33:57.022Z,70.46
2022-09-27T11:35:16.344Z,70.72
2022-09-27T11:36:45.498Z,70.64
2022-09-27T11:38:21.114Z,69.83
2022-09-27T11:39:52.941Z,70.76
2022-09-27T11:41:02.418Z,71.49
2022-09-27T11:42:16.273Z,71.69
2022-09-27T11:43:36.150Z,71.92
2022-09-27T11:45:31.994Z,71.78
2022-09-27T11:46:38.871Z,71.20
2022-09-27T11:47:53.549Z,71.02
2022-09-27T11:49:45.694Z,71.24
2022-09-27T11:51:04.475Z,70.91
2022-09-27T11:52:28.460Z,70.79
2022-09-27T11:53:57.695Z,70.38
2022-09-27T11:55:15.120Z,69.84
2022-09-27T11:56:41.737Z,69.14
2022-09-27T11:58:11.002Z,68.59
2022-09-27T11:59:53.110Z,68.54
2022-09-27T12:01:20.120Z,69.06
2022-09-27T12:02:53.676Z,68.67
2022-09-27T12:04:33.184Z,68.68
2022-09-27T12:06:07.198Z,68.69
2022-09-27T12:07:49.458Z,68.19
2022-09-27T12:09:04.714Z,67.78
2022-09-27T12:10:16.493Z,67.55
2022-09-27T12:11:25.962Z,67.33
2022-09-27T12:12:33.777Z,67.55
2022-09-27T12:13:48.861Z,67.96
2022-09-27T12:15:02.955Z,68.10
2022-09-27T12:16:12.860Z,67.68
2022-09-27T12:17:26.988Z,67.37
2022-09-27T12:18:34.662Z,67.95
2022-09-27T12:19:48.664Z,68.01
2022-09-27T12:21:05.614Z,67.82
2022-09-27T12:22:13.446Z,67.35
2022-09-27T12:23:23.770Z,67.59
2022-09-27T12:24:32.490Z,68.08
2022-09-27T12:25:50.934Z,68.06
2022-09-27T12:27:08.394Z,67.87
2022-09-27T12:28:19.426Z,67.77
2022-09-27T12:29:27.241Z,68.00
2022-09-27T12:30:31.931Z,67.40
2022-09-27T12:31:58.350Z,67.78
2022-09-27T12:33:09.912Z,67.71
2022-09-27T12:34:51.205Z,67.81
2022-09-27T12:35:55.310Z,68.04
2022-09-27T12:37:00.444Z,68.34
2022-09-27T12:38:14.080Z,68.11
2022-09-27T12:39:23.428Z,67.58
2022-09-27T12:40:43.186Z,67.43
2022-09-27T12:42:01.701Z,67.67
2022-09-27T12:43:21.150Z,67.89
2022-09-27T12:44:40.702Z,68.16
2022-09-27T12:45:56.133Z,68.22
2022-09-27T12:47:04.147Z,68.22
2022-09-27T12:48:26.898Z,68.40
2022-09-27T12:49:47.504Z,68.49
2022-09-27T12:50:55.223Z,68.26
2022-09-27T12:52:09.141Z,68.40
2022-09-27T12:53:22.984Z,67.85
2022-09-27T12:54:51.508Z,67.87
2022-09-27T12:56:16.582Z,68.13
2022-09-27T12:57:37.425Z,68.03
2022-09-27T12:58:47.970Z,68.14
2022-09-27T13:00:14.321Z,67.76
2022-09-27T13:01:27.879Z,67.84
2022-09-27T13:03:14.153Z,67.60
2022-09-27T13:04:23.194Z,67.86
2022-09-27T13:05:52.079Z,67.83
2022-09-27T13:07:21.165Z,67.64
2022-09-27T13:08:58.458Z,67.56
2022-09-27T13:10:41.039Z,68.03
2022-09-27T13:12:04.494Z,67.27
2022-09-27T13:13:12.617Z,67.48
2022-09-27T13:14:24.352Z,67.75
2022-09-27T13:15:32.999Z,67.22
2022-09-27T13:16:46.139Z,66.36
2022-09-27T13:17:50.904Z,66.50
2022-09-27T13:19:02.978Z,66.94
2022-09-27T13:20:23.074Z,67.00
2022-09-27T13:21:48.904Z,66.39
2022-09-27T13:23:19.548Z,66.52
2022-09-27T13:24:29.971Z,66.54
2022-09-27T13:25:55.129Z,66.58
2022-09-27T13:27:02.570Z,66.77
2022-09-27T13:28:33.441Z,66.51
2022-09-27T13:29:35.410Z,66.53
2022-09-27T13:30:40.470Z,65.71
2022-09-27T13:31:57.320Z,65.43
2022-09-27T13:33:09.070Z,65.05
2022-09-27T13:34:49.929Z,65.01
2022-09-27T13:36:20.691Z,65.01
2022-09-27T13:38:06.468Z,64.88
2022-09-27T13:39:11.068Z,64.94
2022-09-27T13:40:36.853Z,65.20
2022-09-27T13:42:19.091Z,65.44
2022-09-27T13:43:48.233Z,65.68
2022-09-27T13:45:27.524Z,65.67
2022-09-27T13:46:32.378Z,65.91
2022-09-27T13:47:43.667Z,66.03
2022-09-27T13:49:20.252Z,66.15
2022-09-27T13:50:49.656Z,65.98
2022-09-27T13:52:02.203Z,66.21
2022-09-27T13:53:13.523Z,66.19
2022-09-27T13:54:33.276Z,65.64
2022-09-27T13:55:45.107Z,65.31
2022-09-27T13:56:53.435Z,65.56
2022-09-27T13:58:12.716Z,64.96
2022-09-27T13:59:18.125Z,63.94
2022-09-27T14:00:26.760Z,63.71
2022-09-27T14:01:35.218Z,63.52
2022-09-27T14:03:04.820Z,62.90
2022-09-27T14:04:17.785Z,61.72
2022-09-27T14:05:26.674Z,60.66
2022-09-27T14:06:34.653Z,61.61
2022-09-27T14:07:41.996Z,61.41
2022-09-27T14:08:49.872Z,61.01
2022-09-27T14:09:54.318Z,60.81
2022-09-27T14:11:02.701Z,60.30
2022-09-27T14:12:12.168Z,59.78
2022-09-27T14:13:19.799Z,59.96
2022-09-27T14:14:32.297Z,60.59
2022-09-27T14:15:34.983Z,60.63
2022-09-27T14:16:45.492Z,60.73
2022-09-27T14:17:47.404Z,60.82
2022-09-27T14:18:57.531Z,60.59
2022-09-27T14:20:33.632Z,60.77
2022-09-27T14:21:38.765Z,60.94
2022-09-27T14:22:53.971Z,61.33
2022-09-27T14:24:21.830Z,61.41
2022-09-27T14:25:24.895Z,61.02
2022-09-27T14:26:27.648Z,61.09
2022-09-27T14:27:34.973Z,60.69
2022-09-27T14:28:52.058Z,60.69
2022-09-27T14:30:14.814Z,60.99
2022-09-27T14:31:22.734Z,60.77
2022-09-27T14:32:49.559Z,60.85
2022-09-27T14:34:08.343Z,61.24
2022-09-27T14:35:41.874Z,61.30
2022-09-27T14:37:03.320Z,61.76
2022-09-27T14:38:36.134Z,61.97
2022-09-27T14:39:37.421Z,61.99
2022-09-27T14:40:52.690Z,61.96
2022-09-27T14:41:54.424Z,62.29
2022-09-27T14:42:59.234Z,62.28
2022-09-27T14:44:01.296Z,62.35
2022-09-27T14:45:36.880Z,62.47
2022-09-27T14:46:38.584Z,62.59
2022-09-27T14:47:46.181Z,62.72
2022-09-27T14:48:50.199Z,62.53
2022-09-27T14:50:12.367Z,62.68
2022-09-27T14:51:17.479Z,62.79
2022-09-27T14:52:28.294Z,63.13
2022-09-27T14:53:33.206Z,62.98
2022-09-27T14:54:35.031Z,62.97
2022-09-27T14:55:38.030Z,62.97
2022-09-27T14:56:41.121Z,63.19
2022-09-27T14:57:55.215Z,63.34
2022-09-27T14:59:26.313Z,63.33
2022-09-27T15:00:31.540Z,63.60
2022-09-27T15:01:34.507Z,63.81
2022-09-27T15:02:38.418Z,63.96
2022-09-27T15:03:44.547Z,63.71
2022-09-27T15:04:48.246Z,63.95
2022-09-27T15:05:50.750Z,64.00
2022-09-27T15:06:52.899Z,64.11
2022-09-27T15:08:00.894Z,64.36
2022-09-27T15:09:04.683Z,64.29
2022-09-27T15:10:11.461Z,64.36
2022-09-27T15:11:13.288Z,64.15
2022-09-27T15:12:22.618Z,64.32
2022-09-27T15:13:26.355Z,64.62
2022-09-27T15:14:32.315Z,64.87
2022-09-27T15:15:39.014Z,64.85
2022-09-27T15:16:41.784Z,64.77
2022-09-27T15:17:44.153Z,64.77
2022-09-27T15:19:08.301Z,64.91
2022-09-27T15:20:21.531Z,65.10
2022-09-27T15:21:37.112Z,65.30
2022-09-27T15:22:48.167Z,65.54
2022-09-27T15:23:49.996Z,65.72
2022-09-27T15:24:51.772Z,65.73
2022-09-27T15:26:17.543Z,65.84
2022-09-27T15:27:25.602Z,65.77
2022-09-27T15:28:27.498Z,66.05
2022-09-27T15:29:29.533Z,66.12
2022-09-27T15:30:37.894Z,66.28
2022-09-27T15:31:39.735Z,66.19